createdAt,value
2018-08-22T00:02:03.804Z,67.32
2018-08-22T00:05:07.861Z,67.64
2018-08-22T00:08:11.940Z,67.38
2018-08-22T00:11:15.814Z,68.03
2018-08-22T00:14:20.776Z,67.47
2018-08-22T00:17:24.649Z,67.70
2018-08-22T00:20:28.523Z,67.94
2018-08-22T00:23:32.409Z,68.23
2018-08-22T00:26:36.307Z,68.22
2018-08-22T00:29:40.194Z,67.64
2018-08-22T00:32:44.070Z,68.15
2018-08-22T00:35:48.079Z,68.44
2018-08-22T00:38:52.481Z,67.45
2018-08-22T00:41:57.429Z,68.23
2018-08-22T00:45:01.297Z,68.44
2018-08-22T00:48:05.182Z,68.34
2018-08-22T00:51:09.047Z,67.99
2018-08-22T00:54:12.920Z,67.78
2018-08-22T00:57:16.810Z,67.23
2018-08-22T01:00:20.698Z,67.30
2018-08-22T01:03:24.563Z,67.42
2018-08-22T01:06:28.440Z,67.98
2018-08-22T01:09:32.317Z,67.72
2018-08-22T01:12:36.569Z,67.52
2018-08-22T01:15:40.440Z,67.87
2018-08-22T01:18:44.532Z,67.34
2018-08-22T01:21:48.937Z,67.81
2018-08-22T01:24:52.903Z,68.01
2018-08-22T01:27:56.957Z,68.16
2018-08-22T01:31:00.831Z,68.32
2018-08-22T01:34:04.724Z,67.97
2018-08-22T01:37:08.604Z,67.75
2018-08-22T01:40:12.483Z,68.11
2018-08-22T01:43:16.376Z,67.30
2018-08-22T01:46:20.436Z,67.65
2018-08-22T01:49:24.313Z,67.47
2018-08-22T01:52:28.216Z,67.37
2018-08-22T01:55:32.100Z,67.50
2018-08-22T01:58:36.000Z,68.13
2018-08-22T02:01:39.888Z,67.82
2018-08-22T02:04:44.068Z,67.97
2018-08-22T02:07:47.934Z,67.61
2018-08-22T02:10:51.815Z,68.27
2018-08-22T02:13:56.033Z,67.87
2018-08-22T02:16:59.907Z,67.82
2018-08-22T02:20:04.044Z,67.15
2018-08-22T02:23:07.945Z,67.98
2018-08-22T02:26:11.834Z,68.10
2018-08-22T02:29:15.709Z,67.38
2018-08-22T02:32:19.589Z,68.27
2018-08-22T02:35:23.473Z,67.47
2018-08-22T02:38:27.358Z,67.75
2018-08-22T02:41:31.236Z,68.13
2018-08-22T02:44:35.139Z,68.46
2018-08-22T02:47:39.335Z,68.55
2018-08-22T02:50:43.213Z,68.66
2018-08-22T02:53:47.112Z,68.17
2018-08-22T02:56:51.022Z,68.30
2018-08-22T02:59:54.909Z,68.56
2018-08-22T03:02:58.822Z,68.43
2018-08-22T03:06:02.908Z,68.52
2018-08-22T03:09:07.544Z,68.94
2018-08-22T03:12:11.417Z,68.48
2018-08-22T03:15:15.314Z,68.44
2018-08-22T03:18:19.249Z,68.15
2018-08-22T03:21:23.124Z,68.53
2018-08-22T03:24:27.341Z,68.92
2018-08-22T03:27:31.229Z,67.79
2018-08-22T03:30:35.117Z,68.84
2018-08-22T03:33:39.008Z,67.95
2018-08-22T03:36:43.101Z,68.74
2018-08-22T03:39:46.986Z,68.82
2018-08-22T03:42:50.882Z,69.32
2018-08-22T03:45:55.109Z,68.75
2018-08-22T03:48:58.976Z,68.78
2018-08-22T03:52:03.002Z,68.77
2018-08-22T03:55:06.990Z,68.44
2018-08-22T03:58:11.113Z,68.82
2018-08-22T04:01:15.325Z,68.64
2018-08-22T04:04:19.217Z,68.20
2018-08-22T04:07:23.108Z,68.93
2018-08-22T04:10:26.993Z,69.26
2018-08-22T04:13:30.871Z,69.44
2018-08-22T04:16:34.982Z,68.47
2018-08-22T04:19:38.880Z,68.60
2018-08-22T04:22:42.968Z,69.10
2018-08-22T04:25:46.845Z,68.90
2018-08-22T04:28:50.741Z,69.14
2018-08-22T04:31:54.626Z,69.02
2018-08-22T04:34:58.884Z,68.69
2018-08-22T04:38:02.971Z,68.74
2018-08-22T04:41:06.929Z,68.80
2018-08-22T04:44:10.833Z,68.91
2018-08-22T04:47:14.709Z,68.88
2018-08-22T04:50:18.600Z,69.13
2018-08-22T04:53:22.492Z,68.93
2018-08-22T04:56:26.585Z,69.68
2018-08-22T04:59:30.469Z,69.43
2018-08-22T05:02:34.364Z,69.57
2018-08-22T05:05:38.243Z,69.40
2018-08-22T05:08:42.258Z,69.69
2018-08-22T05:11:46.142Z,69.47
2018-08-22T05:14:50.036Z,68.96
2018-08-22T05:17:54.112Z,69.44
2018-08-22T05:20:57.998Z,68.71
2018-08-22T05:24:01.872Z,69.07
2018-08-22T05:27:05.757Z,69.46
2018-08-22T05:30:09.670Z,69.14
2018-08-22T05:33:13.732Z,69.07
2018-08-22T05:36:17.633Z,69.25
2018-08-22T05:39:21.525Z,68.95
2018-08-22T05:42:25.413Z,69.19
2018-08-22T05:45:29.336Z,69.38
2018-08-22T05:48:33.228Z,68.41
2018-08-22T05:51:37.142Z,68.91
2018-08-22T05:54:41.004Z,69.06
2018-08-22T05:57:45.000Z,69.28
2018-08-22T06:00:49.094Z,68.88
2018-08-22T06:03:52.980Z,69.39
2018-08-22T06:06:56.848Z,68.98
2018-08-22T06:10:00.735Z,68.33
2018-08-22T06:13:04.821Z,69.24
2018-08-22T06:16:08.706Z,68.44
2018-08-22T06:19:12.589Z,68.24
2018-08-22T06:22:16.633Z,68.04
2018-08-22T06:25:20.562Z,67.86
2018-08-22T06:28:24.446Z,68.64
2018-08-22T06:31:28.336Z,68.87
2018-08-22T06:34:32.200Z,68.37
2018-08-22T06:37:36.120Z,68.81
2018-08-22T06:40:40.003Z,67.86
2018-08-22T06:43:43.873Z,68.12
2018-08-22T06:46:48.067Z,68.40
2018-08-22T06:49:52.153Z,67.89
2018-08-22T06:52:56.044Z,68.19
2018-08-22T06:55:59.947Z,68.64
2018-08-22T06:59:03.835Z,68.43
2018-08-22T07:02:07.716Z,68.69
2018-08-22T07:05:11.729Z,67.50
2018-08-22T07:08:15.876Z,67.81
2018-08-22T07:11:19.888Z,67.88
2018-08-22T07:14:23.751Z,68.65
2018-08-22T07:17:28.070Z,67.65
2018-08-22T07:20:31.930Z,68.30
2018-08-22T07:23:35.837Z,67.68
2018-08-22T07:26:39.738Z,67.86
2018-08-22T07:29:43.628Z,67.55
2018-08-22T07:32:47.889Z,67.90
2018-08-22T07:35:51.836Z,68.24
2018-08-22T07:38:55.854Z,68.47
2018-08-22T07:41:59.725Z,68.27
2018-08-22T07:45:03.601Z,67.73
2018-08-22T07:48:07.477Z,67.85
2018-08-22T07:51:11.537Z,67.73
2018-08-22T07:54:15.418Z,68.00
2018-08-22T07:57:22.067Z,68.06
2018-08-22T08:00:25.950Z,67.39
2018-08-22T08:03:29.888Z,67.67
2018-08-22T08:06:33.790Z,67.26
2018-08-22T08:09:37.844Z,67.39
2018-08-22T08:12:41.745Z,67.36
2018-08-22T08:15:45.642Z,67.18
2018-08-22T08:18:49.530Z,67.32
2018-08-22T08:21:53.456Z,67.23
2018-08-22T08:24:57.341Z,67.87
2018-08-22T08:28:01.220Z,67.43
2018-08-22T08:31:05.111Z,67.48
2018-08-22T08:34:09.009Z,68.23
2018-08-22T08:37:12.896Z,67.29
2018-08-22T08:40:16.994Z,67.68
2018-08-22T08:43:20.915Z,67.35
2018-08-22T08:46:24.945Z,67.38
2018-08-22T08:49:28.907Z,66.96
2018-08-22T08:52:32.907Z,67.79
2018-08-22T08:55:36.840Z,67.63
2018-08-22T08:58:40.925Z,67.81
2018-08-22T09:01:44.831Z,67.61
2018-08-22T09:04:48.928Z,66.68
2018-08-22T09:07:52.998Z,67.24
2018-08-22T09:10:56.895Z,67.17
2018-08-22T09:14:00.790Z,66.49
2018-08-22T09:17:05.306Z,66.35
2018-08-22T09:20:09.593Z,67.09
2018-08-22T09:23:13.473Z,67.04
2018-08-22T09:26:17.362Z,66.17
2018-08-22T09:29:21.292Z,66.14
2018-08-22T09:32:25.167Z,66.44
2018-08-22T09:35:29.846Z,65.98
2018-08-22T09:38:34.246Z,66.69
2018-08-22T09:41:38.141Z,66.29
2018-08-22T09:44:42.228Z,65.83
2018-08-22T09:47:46.290Z,65.91
2018-08-22T09:50:50.217Z,65.64
2018-08-22T09:53:54.506Z,65.64
2018-08-22T09:56:58.385Z,65.41
2018-08-22T10:00:02.296Z,64.29
2018-08-22T10:03:06.370Z,64.93
2018-08-22T10:06:10.243Z,63.77
2018-08-22T10:09:20.139Z,63.36
2018-08-22T10:12:24.010Z,62.40
2018-08-22T10:15:27.889Z,59.86
2018-08-22T10:18:31.765Z,60.20
2018-08-22T10:21:35.691Z,59.51
2018-08-22T10:24:39.577Z,60.49
2018-08-22T10:27:43.485Z,62.20
2018-08-22T10:30:47.385Z,62.09
2018-08-22T10:33:51.615Z,61.87
2018-08-22T10:36:55.494Z,62.75
2018-08-22T10:39:59.570Z,62.76
2018-08-22T10:43:03.662Z,62.84
2018-08-22T10:46:08.367Z,63.09
2018-08-22T10:49:12.268Z,62.72
2018-08-22T10:52:16.150Z,62.11
2018-08-22T10:55:20.247Z,62.47
2018-08-22T10:58:24.123Z,61.98
2018-08-22T11:01:28.009Z,61.85
2018-08-22T11:04:31.878Z,61.88
2018-08-22T11:07:35.736Z,62.45
2018-08-22T11:10:39.633Z,62.09
2018-08-22T11:13:43.522Z,61.78
2018-08-22T11:16:47.397Z,61.42
2018-08-22T11:19:51.273Z,62.18
2018-08-22T11:23:06.757Z,61.45
2018-08-22T11:26:23.120Z,62.04
2018-08-22T11:29:38.368Z,61.13
2018-08-22T11:32:53.559Z,60.92
2018-08-22T11:35:56.446Z,61.24
2018-08-22T11:39:00.351Z,61.49
2018-08-22T11:42:04.687Z,60.65
2018-08-22T11:45:08.760Z,61.29
2018-08-22T11:48:12.828Z,60.54
2018-08-22T11:51:16.742Z,60.44
2018-08-22T11:54:20.620Z,60.32
2018-08-22T11:57:24.493Z,61.04
2018-08-22T12:00:28.572Z,60.95
2018-08-22T12:03:32.453Z,60.90
2018-08-22T12:06:36.381Z,60.94
2018-08-22T12:09:40.239Z,60.19
2018-08-22T12:12:44.113Z,60.10
2018-08-22T12:15:48.003Z,60.65
2018-08-22T12:18:51.897Z,60.64
2018-08-22T12:21:55.779Z,60.52
2018-08-22T12:24:59.702Z,60.02
2018-08-22T12:28:03.877Z,59.47
2018-08-22T12:31:07.980Z,59.83
2018-08-22T12:34:12.011Z,59.21
2018-08-22T12:37:15.985Z,58.92
2018-08-22T12:40:19.860Z,59.51
2018-08-22T12:43:23.733Z,58.33
2018-08-22T12:46:27.599Z,57.94
2018-08-22T12:49:31.448Z,58.27
2018-08-22T12:52:35.317Z,58.89
2018-08-22T12:55:39.197Z,57.67
2018-08-22T12:58:43.478Z,58.56
2018-08-22T13:01:47.371Z,58.67
2018-08-22T13:04:51.258Z,57.80
2018-08-22T13:07:55.337Z,58.48
2018-08-22T13:10:59.243Z,58.30
2018-08-22T13:14:03.287Z,57.41
2018-08-22T13:17:07.429Z,57.13
2018-08-22T13:20:11.473Z,57.40
2018-08-22T13:23:15.356Z,56.89
2018-08-22T13:26:19.423Z,55.95
2018-08-22T13:29:23.293Z,56.01
2018-08-22T13:32:27.755Z,56.67
2018-08-22T13:35:31.957Z,55.90
2018-08-22T13:38:35.842Z,56.66
2018-08-22T13:41:39.722Z,56.08
2018-08-22T13:44:43.629Z,55.79
2018-08-22T13:47:47.519Z,55.96
2018-08-22T13:50:51.750Z,54.99
2018-08-22T13:53:56.139Z,54.96
2018-08-22T13:57:00.018Z,55.46
2018-08-22T14:00:04.198Z,54.91
2018-08-22T14:03:08.078Z,54.57
2018-08-22T14:06:11.999Z,53.99
2018-08-22T14:09:16.086Z,54.24
2018-08-22T14:12:19.953Z,54.57
2018-08-22T14:15:23.879Z,54.61
2018-08-22T14:18:27.750Z,53.38
2018-08-22T14:21:31.694Z,53.72
2018-08-22T14:24:36.112Z,53.54
2018-08-22T14:27:39.998Z,53.91
2018-08-22T14:30:45.517Z,52.81
2018-08-22T14:33:49.877Z,52.95
2018-08-22T14:36:54.190Z,53.76
2018-08-22T14:39:58.091Z,53.49
2018-08-22T14:43:02.337Z,53.52
2018-08-22T14:46:06.246Z,52.76
2018-08-22T14:49:10.165Z,52.63
2018-08-22T14:52:14.040Z,53.98
2018-08-22T14:55:18.125Z,52.79
2018-08-22T14:58:22.560Z,52.20
2018-08-22T15:01:26.766Z,52.16
2018-08-22T15:04:30.649Z,52.30
2018-08-22T15:07:34.521Z,51.56
2018-08-22T15:10:38.409Z,51.42
2018-08-22T15:13:42.299Z,51.64
2018-08-22T15:16:46.509Z,51.56
2018-08-22T15:19:50.393Z,50.83
2018-08-22T15:22:54.293Z,51.05
2018-08-22T15:25:58.162Z,51.54
2018-08-22T15:29:02.070Z,50.94
2018-08-22T15:32:06.481Z,51.93
2018-08-22T15:35:10.366Z,50.87
2018-08-22T15:38:14.257Z,51.21
2018-08-22T15:41:18.756Z,50.45
2018-08-22T15:44:22.742Z,51.33
2018-08-22T15:47:26.687Z,50.46
2018-08-22T15:50:30.706Z,50.02
2018-08-22T15:53:34.589Z,49.43
2018-08-22T15:56:40.269Z,50.81
2018-08-22T15:59:44.331Z,51.98
2018-08-22T16:02:48.416Z,51.78
2018-08-22T16:05:53.434Z,50.64
2018-08-22T16:08:57.297Z,51.84
2018-08-22T16:12:01.701Z,50.59
2018-08-22T16:15:05.613Z,51.12
2018-08-22T16:18:10.022Z,50.91
2018-08-22T16:21:14.410Z,50.37
2018-08-22T16:24:18.843Z,51.05
2018-08-22T16:27:22.929Z,50.65
2018-08-22T16:30:26.831Z,50.41
2018-08-22T16:33:30.905Z,50.43
2018-08-22T16:40:10.747Z,50.56
2018-08-22T17:01:58.168Z,51.56
2018-08-22T17:05:12.809Z,51.76
